Time;durP1;ratioP1;P1;durP2;ratioP2;P2;SDS_P1;SDS_P2;PMS_P1;PMS_P2;Temp;Humidity;BMP_temperature;BMP_pressure;BME280_temperature;BME280_humidity;BME280_pressure;Samples;Min_cycle;Max_cycle;Signal;HPM_P1;HPM_P2
2021/04/24 00:02:19;;;;;;;3.72;3.17;;;;;;;23.34;42.84;95481.97;4975841;28;20490;-83
2021/04/24 00:04:44;;;;;;;4.15;3.30;;;;;;;23.34;42.75;95483.97;4993835;28;20026;-83
2021/04/24 00:07:10;;;;;;;3.78;3.25;;;;;;;23.31;42.98;95488.41;4992656;28;20477;-83
2021/04/24 00:09:36;;;;;;;3.92;3.30;;;;;;;23.31;42.84;95491.13;4992974;28;20037;-83
2021/04/24 00:12:01;;;;;;;4.32;3.40;;;;;;;23.28;42.66;95486.69;4992266;28;20037;-83
2021/04/24 00:14:27;;;;;;;5.13;3.45;;;;;;;23.29;42.52;95485.44;4992838;28;20124;-83
2021/04/24 00:16:52;;;;;;;4.65;3.42;;;;;;;23.28;42.86;95483.94;4992238;28;20031;-82
2021/04/24 00:19:18;;;;;;;5.32;3.35;;;;;;;23.25;42.63;95479.50;4992496;28;20030;-83
2021/04/24 00:21:43;;;;;;;3.58;3.10;;;;;;;23.18;42.44;95474.53;4992573;28;20037;-83
2021/04/24 00:24:09;;;;;;;4.00;3.22;;;;;;;23.21;42.98;95476.28;4992455;28;20096;-83
2021/04/24 00:26:34;;;;;;;4.00;3.42;;;;;;;23.21;42.77;95479.00;4992555;28;20050;-83
2021/04/24 00:29:00;;;;;;;4.10;3.70;;;;;;;23.22;42.67;95485.22;4991435;28;20053;-83
2021/04/24 00:31:25;;;;;;;4.68;3.63;;;;;;;23.12;42.91;95482.00;4994896;28;20046;-83
2021/04/24 00:33:50;;;;;;;3.53;3.20;;;;;;;23.09;42.98;95477.53;4974919;28;20026;-82
2021/04/24 00:36:16;;;;;;;4.50;3.20;;;;;;;23.18;42.83;95480.00;4975135;28;20030;-83
2021/04/24 00:38:41;;;;;;;4.15;3.33;;;;;;;23.07;42.88;95463.66;4973969;28;20406;-83
2021/04/24 00:41:07;;;;;;;4.10;3.55;;;;;;;23.11;42.92;95475.06;4974420;28;20041;-82
2021/04/24 00:43:32;;;;;;;4.22;3.30;;;;;;;23.17;42.70;95483.97;4974640;28;20496;-83
2021/04/24 00:45:58;;;;;;;3.85;3.33;;;;;;;23.06;42.85;95473.09;4974549;28;20037;-82
2021/04/24 00:48:23;;;;;;;4.65;3.50;;;;;;;23.06;42.67;95461.44;4973830;28;20046;-82
2021/04/24 00:50:48;;;;;;;3.17;2.65;;;;;;;23.16;43.00;95490.66;4974319;28;20034;-83
2021/04/24 00:53:14;;;;;;;4.70;3.33;;;;;;;23.12;42.90;95479.28;4992103;28;20030;-83
2021/04/24 00:55:40;;;;;;;4.28;3.00;;;;;;;23.09;42.92;95477.53;4991693;28;20046;-83
2021/04/24 00:58:11;;;;;;;3.40;2.83;;;;;;;23.01;42.77;95476.53;4991846;28;20478;-83
2021/04/24 01:00:36;;;;;;;4.03;3.35;;;;;;;22.98;43.09;95469.34;4991456;28;20037;-83
2021/04/24 01:03:02;;;;;;;3.60;3.05;;;;;;;23.06;42.98;95478.53;4974093;28;20501;-83
2021/04/24 01:05:38;;;;;;;3.42;3.13;;;;;;;23.03;42.76;95471.34;4974096;28;20557;-82
2021/04/24 01:08:04;;;;;;;5.68;3.40;;;;;;;22.98;42.99;95472.06;4975451;28;20026;-82
2021/04/24 01:10:33;;;;;;;4.20;2.92;;;;;;;23.05;43.08;95487.94;4991642;28;20521;-83
2021/04/24 01:12:58;;;;;;;4.03;3.05;;;;;;;23.05;42.61;95481.75;4974534;28;20036;-83
2021/04/24 01:15:24;;;;;;;3.90;3.17;;;;;;;23.03;42.68;95498.59;4992011;28;20034;-82
2021/04/24 01:17:49;;;;;;;3.58;3.17;;;;;;;23.01;42.58;95487.44;4991272;28;20029;-82
2021/04/24 01:20:15;;;;;;;4.93;3.20;;;;;;;23.01;43.11;95492.88;4991346;28;20501;-83
2021/04/24 01:22:44;;;;;;;4.45;3.05;;;;;;;23.01;42.79;95498.31;4991827;28;20034;-82
2021/04/24 01:25:14;;;;;;;4.15;3.05;;;;;;;22.99;42.93;95495.38;4960041;28;20556;-83
2021/04/24 01:27:39;;;;;;;3.80;2.90;;;;;;;22.90;43.02;95484.69;4973949;28;20465;-82
2021/04/24 01:30:09;;;;;;;3.65;2.65;;;;;;;22.96;43.02;95490.91;4973407;28;20022;-83
2021/04/24 01:32:35;;;;;;;3.28;2.97;;;;;;;22.98;42.79;95482.97;4990929;28;20497;-83
2021/04/24 01:35:00;;;;;;;3.65;2.80;;;;;;;22.96;43.24;95485.47;4974006;28;20070;-82
2021/04/24 01:37:26;;;;;;;3.65;2.83;;;;;;;22.97;43.25;95481.50;4973261;28;20050;-82
2021/04/24 01:39:51;;;;;;;3.28;2.85;;;;;;;22.88;43.08;95470.81;4990943;28;20045;-83
2021/04/24 01:42:16;;;;;;;4.00;2.90;;;;;;;22.93;42.95;95475.56;4973617;28;20205;-82
2021/04/24 01:44:42;;;;;;;3.80;2.97;;;;;;;22.89;42.91;95483.19;4973557;28;20089;-82
2021/04/24 01:47:07;;;;;;;4.07;3.35;;;;;;;22.91;42.76;95488.91;4973812;28;20086;-83
2021/04/24 01:49:33;;;;;;;3.47;2.70;;;;;;;22.92;43.16;95489.63;4989618;28;20030;-82
2021/04/24 01:51:58;;;;;;;3.50;2.72;;;;;;;22.91;43.00;95488.91;4973363;28;20046;-82
2021/04/24 01:54:23;;;;;;;3.35;2.97;;;;;;;22.90;42.84;95495.56;4970004;28;20055;-83
2021/04/24 01:56:50;;;;;;;4.22;3.10;;;;;;;22.90;43.15;95498.31;4985693;28;20031;-82
2021/04/24 01:59:16;;;;;;;3.53;2.80;;;;;;;22.91;42.74;95496.31;4971410;28;20019;-83
2021/04/24 02:01:47;;;;;;;3.53;3.10;;;;;;;22.89;43.14;95496.81;4971307;28;20022;-82
2021/04/24 02:04:13;;;;;;;3.33;2.78;;;;;;;22.90;42.80;95492.13;4971338;28;20498;-83
2021/04/24 02:06:38;;;;;;;3.72;2.83;;;;;;;22.85;43.08;95489.38;4986199;28;20034;-83
2021/04/24 02:09:07;;;;;;;3.72;2.90;;;;;;;22.89;42.79;95504.97;4970108;28;20029;-82
2021/04/24 02:11:33;;;;;;;3.92;2.70;;;;;;;22.78;43.00;95487.13;4969702;28;20089;-82
2021/04/24 02:13:58;;;;;;;4.38;2.90;;;;;;;22.86;42.80;95501.78;4970127;28;20804;-83
2021/04/24 02:16:24;;;;;;;4.38;2.67;;;;;;;22.75;42.97;95490.84;4988811;28;20031;-82
2021/04/24 02:18:49;;;;;;;2.75;2.33;;;;;;;22.82;43.16;95507.44;4971177;28;20023;-82
2021/04/24 02:21:15;;;;;;;3.38;2.60;;;;;;;22.73;42.85;95490.59;4970817;28;20023;-83
2021/04/24 02:23:40;;;;;;;2.95;2.40;;;;;;;22.82;43.08;95493.09;4985792;28;20413;-82
2021/04/24 02:26:07;;;;;;;3.65;3.00;;;;;;;22.83;43.16;95497.31;4970851;28;20031;-82
2021/04/24 02:28:32;;;;;;;3.65;2.70;;;;;;;22.82;43.00;95501.25;4970816;28;20030;-83
2021/04/24 02:30:58;;;;;;;3.17;2.50;;;;;;;22.81;43.01;95500.53;4970487;28;20022;-82
2021/04/24 02:33:23;;;;;;;4.35;2.90;;;;;;;22.81;42.73;95499.75;4971131;28;20093;-83
2021/04/24 02:35:59;;;;;;;3.30;2.50;;;;;;;22.81;42.91;95497.03;4971136;28;20046;-83
2021/04/24 02:38:32;;;;;;;3.70;2.55;;;;;;;22.82;42.89;95495.81;4968973;28;20506;-82
2021/04/24 02:41:02;;;;;;;3.60;2.55;;;;;;;22.70;43.23;95483.41;4970449;28;20395;-83
2021/04/24 02:43:27;;;;;;;4.38;2.70;;;;;;;22.79;43.07;95496.81;4969763;28;20023;-82
2021/04/24 02:45:53;;;;;;;4.00;2.60;;;;;;;22.77;42.91;95493.84;4969666;28;20985;-82
2021/04/24 02:48:18;;;;;;;4.13;2.92;;;;;;;22.72;42.76;95487.16;4970693;28;20061;-82
2021/04/24 02:50:44;;;;;;;5.30;2.35;;;;;;;22.73;42.88;95491.34;4970833;28;20395;-81
2021/04/24 02:53:10;;;;;;;3.35;2.63;;;;;;;22.76;42.81;95497.78;4985924;28;20077;-80
2021/04/24 02:55:36;;;;;;;3.25;2.55;;;;;;;22.67;42.98;95495.31;4988349;28;20050;-81
2021/04/24 02:58:01;;;;;;;3.25;2.60;;;;;;;22.74;42.81;95505.72;4968282;28;20030;-81
2021/04/24 03:00:27;;;;;;;2.88;2.50;;;;;;;22.75;43.08;95501.75;4968990;28;20031;-80
2021/04/24 03:03:12;;;;;;;3.17;2.22;;;;;;;22.64;43.25;95480.69;4954956;28;20035;-80
2021/04/24 03:05:38;;;;;;;3.30;2.45;;;;;;;22.70;43.07;95494.31;4971997;28;20091;-81
2021/04/24 03:08:04;;;;;;;3.58;2.53;;;;;;;22.71;42.80;95490.38;4959469;28;20032;-82
2021/04/24 03:10:30;;;;;;;3.35;2.50;;;;;;;22.54;43.22;95479.44;4956247;28;20537;-82
2021/04/24 03:12:55;;;;;;;3.50;2.38;;;;;;;22.70;42.97;95502.47;4970792;28;20019;-82
2021/04/24 03:15:21;;;;;;;2.90;2.38;;;;;;;22.63;42.80;95494.78;4955180;29;20023;-82
2021/04/24 03:17:46;;;;;;;3.42;2.70;;;;;;;22.60;42.88;95491.09;4954455;29;20027;-82
2021/04/24 03:20:13;;;;;;;3.08;2.50;;;;;;;22.67;42.79;95506.19;4944427;28;20509;-82
2021/04/24 03:22:38;;;;;;;3.10;2.63;;;;;;;22.70;43.26;95507.94;4990077;28;20457;-81
2021/04/24 03:25:05;;;;;;;3.15;2.60;;;;;;;22.56;43.11;95484.41;4972630;28;20098;-79
2021/04/24 03:27:30;;;;;;;2.97;2.30;;;;;;;22.69;42.55;95498.25;4953467;28;20440;-78
2021/04/24 03:29:56;;;;;;;3.28;2.20;;;;;;;22.79;42.29;95491.34;4936378;28;20561;-75
2021/04/24 03:32:21;;;;;;;3.20;2.33;;;;;;;22.91;42.13;95499.03;4967469;28;20042;-73
2021/04/24 03:34:47;;;;;;;2.78;2.30;;;;;;;23.00;42.38;95507.75;4968255;28;20056;-72
2021/04/24 03:37:12;;;;;;;3.03;2.08;;;;;;;23.10;42.28;95514.44;4968220;28;20613;-72
2021/04/24 03:39:38;;;;;;;6.72;2.70;;;;;;;23.16;41.96;95509.72;4965818;28;20046;-77
2021/04/24 03:42:04;;;;;;;2.88;2.30;;;;;;;23.19;41.71;95508.72;4965966;28;20081;-80
2021/04/24 03:44:30;;;;;;;4.50;2.20;;;;;;;23.20;41.17;95499.31;4970343;28;20121;-79
2021/04/24 03:46:55;;;;;;;3.25;2.30;;;;;;;23.16;41.16;95493.38;4968509;28;20035;-74
2021/04/24 03:49:20;;;;;;;3.20;2.08;;;;;;;23.26;41.59;95502.78;4950047;28;20038;-77
2021/04/24 03:51:46;;;;;;;2.95;2.00;;;;;;;23.24;41.91;95510.69;4970846;28;20483;-78
2021/04/24 03:54:11;;;;;;;2.55;2.05;;;;;;;23.28;41.44;95511.19;4969861;28;20066;-84
2021/04/24 03:56:37;;;;;;;3.00;2.03;;;;;;;23.24;41.30;95507.97;4968496;28;20093;-72
2021/04/24 03:59:02;;;;;;;2.83;2.00;;;;;;;23.24;41.57;95494.34;4951890;28;20018;-73
2021/04/24 04:01:28;;;;;;;3.92;2.22;;;;;;;23.27;41.76;95509.72;4965217;28;20065;-74
2021/04/24 04:03:53;;;;;;;3.75;2.08;;;;;;;23.37;41.61;95524.59;4968134;28;20049;-74
2021/04/24 04:06:19;;;;;;;3.63;1.85;;;;;;;23.37;41.92;95530.75;4967693;28;20038;-73
2021/04/24 04:08:44;;;;;;;2.85;2.00;;;;;;;23.40;41.99;95534.50;4969420;28;20418;-79
2021/04/24 04:11:09;;;;;;;2.75;1.90;;;;;;;23.40;41.73;95535.22;4971055;28;20023;-80
2021/04/24 04:13:35;;;;;;;1.92;1.67;;;;;;;23.43;41.35;95539.69;4968696;28;20030;-77
2021/04/24 04:16:00;;;;;;;2.45;1.70;;;;;;;23.42;41.65;95537.44;4969924;28;20037;-76
2021/04/24 04:18:26;;;;;;;2.15;1.85;;;;;;;23.42;41.68;95532.75;4968303;28;20026;-77
2021/04/24 04:20:54;;;;;;;2.83;2.00;;;;;;;23.43;41.88;95534.22;4967130;28;20057;-75
2021/04/24 04:23:20;;;;;;;2.35;1.75;;;;;;;23.49;41.61;95534.25;4968929;28;20018;-76
2021/04/24 04:25:45;;;;;;;2.47;1.70;;;;;;;23.51;41.31;95523.56;4968111;28;20034;-75
2021/04/24 04:28:11;;;;;;;2.13;1.80;;;;;;;23.53;41.52;95532.00;4967527;28;20031;-75
2021/04/24 04:30:37;;;;;;;2.50;1.80;;;;;;;23.51;41.81;95518.13;4968599;28;20030;-74
2021/04/24 04:33:03;;;;;;;2.40;1.80;;;;;;;23.53;41.45;95521.09;4983798;28;20030;-74
2021/04/24 04:35:29;;;;;;;4.32;2.65;;;;;;;23.52;38.74;95525.06;4968017;28;20029;-73
2021/04/24 04:37:54;;;;;;;3.53;2.10;;;;;;;23.46;40.07;95521.59;4971977;28;20018;-85
2021/04/24 04:40:20;;;;;;;2.13;1.90;;;;;;;23.57;41.00;95524.31;4965649;28;20026;-77
2021/04/24 04:42:46;;;;;;;3.50;2.00;;;;;;;23.51;41.53;95512.66;4969674;28;20474;-78
2021/04/24 04:45:12;;;;;;;3.78;1.90;;;;;;;23.61;41.52;95524.81;4953006;28;20027;-81
2021/04/24 04:47:37;;;;;;;4.55;1.85;;;;;;;23.59;41.45;95519.13;4968176;28;20058;-81
2021/04/24 04:50:04;;;;;;;2.45;1.83;;;;;;;23.69;41.44;95533.97;4968811;28;20033;-83
2021/04/24 04:52:30;;;;;;;2.47;1.67;;;;;;;23.66;41.37;95524.06;4967842;28;20145;-80
2021/04/24 04:54:55;;;;;;;2.90;1.73;;;;;;;23.67;41.44;95517.38;4951446;28;20075;-83
2021/04/24 04:57:21;;;;;;;2.33;1.80;;;;;;;23.84;40.77;95523.53;4986788;28;20085;-89
2021/04/24 04:59:46;;;;;;;2.55;1.73;;;;;;;23.89;40.83;95521.53;4970958;28;20019;-84
2021/04/24 05:02:12;;;;;;;3.35;1.70;;;;;;;23.95;40.92;95516.81;4985448;28;20011;-77
2021/04/24 05:04:37;;;;;;;3.67;1.52;;;;;;;24.05;40.62;95512.56;4985021;28;20030;-79
2021/04/24 05:07:03;;;;;;;2.45;1.70;;;;;;;24.00;40.62;95490.75;4968022;28;20462;-77
2021/04/24 05:09:28;;;;;;;2.28;1.70;;;;;;;24.24;40.49;95508.03;4967834;28;20585;-77
2021/04/24 05:11:54;;;;;;;2.42;1.67;;;;;;;24.37;40.37;95505.53;4968868;28;20093;-77
2021/04/24 05:14:19;;;;;;;2.58;1.58;;;;;;;24.47;40.10;95499.25;4963792;28;20164;-78
2021/04/24 05:16:45;;;;;;;2.45;1.50;;;;;;;24.60;40.27;95510.38;4969646;28;20387;-73
2021/04/24 05:19:11;;;;;;;3.50;1.52;;;;;;;24.69;40.42;95517.50;4969724;28;20114;-78
2021/04/24 05:21:36;;;;;;;3.78;1.70;;;;;;;24.82;40.12;95517.69;4969825;28;20033;-76
2021/04/24 05:24:02;;;;;;;2.08;1.58;;;;;;;24.87;40.30;95510.19;4968823;28;20553;-78
2021/04/24 05:26:28;;;;;;;3.83;1.67;;;;;;;25.03;40.04;95520.28;4968908;28;20045;-76
2021/04/24 05:28:53;;;;;;;2.60;1.60;;;;;;;25.11;39.92;95520.47;4968968;28;20038;-77
2021/04/24 05:31:19;;;;;;;2.80;1.42;;;;;;;25.23;40.15;95522.63;4965215;28;20030;-78
2021/04/24 05:33:45;;;;;;;1.85;1.40;;;;;;;25.32;40.19;95533.25;4967301;28;20494;-75
2021/04/24 05:36:13;;;;;;;3.10;1.70;;;;;;;25.47;40.09;95533.59;4968483;28;20039;-74
2021/04/24 05:38:38;;;;;;;2.22;1.60;;;;;;;25.55;39.80;95529.81;4967740;28;20041;-81
2021/04/24 05:41:05;;;;;;;3.28;1.65;;;;;;;25.56;40.20;95520.34;4968033;28;20027;-82
2021/04/24 05:43:30;;;;;;;2.67;1.52;;;;;;;25.58;40.12;95506.16;4972718;28;20027;-80
2021/04/24 05:45:56;;;;;;;4.00;2.00;;;;;;;25.78;39.95;95513.94;4952279;28;20023;-80
2021/04/24 05:48:21;;;;;;;4.18;1.70;;;;;;;25.72;39.38;95507.78;4971382;28;20411;-81
2021/04/24 05:50:47;;;;;;;3.05;1.83;;;;;;;25.74;39.66;95525.19;4969024;28;20015;-82
2021/04/24 05:53:12;;;;;;;1.98;1.60;;;;;;;25.85;39.26;95523.06;4951814;28;20422;-79
2021/04/24 05:55:38;;;;;;;4.10;2.55;;;;;;;25.88;35.88;95535.72;4966186;28;20813;-89
2021/04/24 05:58:03;;;;;;;5.57;2.92;;;;;;;25.75;35.45;95509.50;4969111;28;20030;-77
2021/04/24 06:00:29;;;;;;;2.72;2.15;;;;;;;26.02;37.67;95526.38;4949789;28;20045;-76
2021/04/24 06:02:54;;;;;;;4.47;1.73;;;;;;;26.13;38.13;95537.22;4951592;28;20038;-75
2021/04/24 06:05:22;;;;;;;2.50;1.52;;;;;;;26.19;37.84;95548.84;4963845;28;20023;-77
2021/04/24 06:07:48;;;;;;;2.55;1.77;;;;;;;26.15;37.86;95518.25;4942822;28;20058;-77
2021/04/24 06:10:14;;;;;;;3.88;1.70;;;;;;;26.30;37.57;95527.56;4966538;28;20023;-76
2021/04/24 06:12:40;;;;;;;3.92;2.00;;;;;;;26.18;37.28;95514.50;4965050;28;20027;-75
2021/04/24 06:15:09;;;;;;;4.00;1.65;;;;;;;26.36;37.46;95533.72;4951189;28;20026;-72
2021/04/24 06:17:35;;;;;;;4.77;1.97;;;;;;;26.35;37.58;95523.25;4965787;28;20022;-75
2021/04/24 06:20:00;;;;;;;2.30;1.60;;;;;;;26.45;37.39;95529.88;4983114;28;20038;-76
2021/04/24 06:22:25;;;;;;;2.55;1.80;;;;;;;26.46;37.23;95528.63;4969081;28;20022;-78
2021/04/24 06:24:51;;;;;;;4.50;2.17;;;;;;;26.51;37.04;95544.25;4961257;28;20042;-73
2021/04/24 06:27:16;;;;;;;3.85;1.90;;;;;;;26.65;37.17;95540.31;4967671;28;20117;-74
2021/04/24 06:29:42;;;;;;;3.28;1.80;;;;;;;26.67;36.81;95533.06;4967391;28;20026;-74
2021/04/24 06:32:08;;;;;;;2.00;1.52;;;;;;;26.69;37.02;95535.28;4967250;28;20023;-76
2021/04/24 06:34:33;;;;;;;3.22;1.98;;;;;;;26.73;36.97;95535.75;4967768;28;20081;-76
2021/04/24 06:36:59;;;;;;;3.33;1.80;;;;;;;26.72;36.75;95539.75;4967390;28;20026;-77
2021/04/24 06:39:24;;;;;;;3.30;1.85;;;;;;;26.73;36.99;95541.22;4965767;28;20021;-74
2021/04/24 06:41:50;;;;;;;3.97;1.98;;;;;;;26.83;36.35;95535.59;4968822;28;20035;-82
2021/04/24 06:44:16;;;;;;;3.33;1.83;;;;;;;26.88;36.53;95536.78;4965912;28;20054;-76
2021/04/24 06:46:42;;;;;;;3.28;1.80;;;;;;;26.90;36.63;95540.50;4964897;28;20482;-76
2021/04/24 06:49:07;;;;;;;2.78;1.83;;;;;;;26.86;36.76;95551.00;4967817;28;20030;-77
2021/04/24 06:51:33;;;;;;;3.10;1.80;;;;;;;26.90;36.82;95535.00;4966883;28;20022;-77
2021/04/24 06:53:58;;;;;;;4.90;1.90;;;;;;;26.97;36.70;95539.91;4967718;28;20066;-75
2021/04/24 06:56:24;;;;;;;5.35;1.80;;;;;;;26.91;36.21;95531.00;4964622;28;20498;-78
2021/04/24 06:58:49;;;;;;;6.13;2.05;;;;;;;27.08;36.44;95534.25;4944130;28;20020;-74
2021/04/24 07:01:15;;;;;;;5.78;2.10;;;;;;;26.92;36.55;95534.47;4986328;28;20026;-79
2021/04/24 07:03:40;;;;;;;3.80;1.80;;;;;;;27.04;36.21;95536.56;4987995;28;20022;-72
2021/04/24 07:06:05;;;;;;;4.65;2.22;;;;;;;26.96;36.65;95543.88;4969666;28;20058;-69
2021/04/24 07:08:31;;;;;;;4.22;2.00;;;;;;;26.95;36.92;95531.47;4987139;28;20121;-80
2021/04/24 07:10:57;;;;;;;5.07;1.80;;;;;;;26.99;37.14;95531.88;4970154;28;20041;-82
2021/04/24 07:13:22;;;;;;;3.17;1.63;;;;;;;26.88;37.38;95526.53;4988104;28;20080;-82
2021/04/24 07:15:48;;;;;;;4.30;2.10;;;;;;;26.97;37.41;95539.91;4966612;28;20053;-77
2021/04/24 07:18:13;;;;;;;3.53;1.80;;;;;;;26.89;37.20;95530.81;4939433;28;20117;-78
2021/04/24 07:20:38;;;;;;;6.05;1.85;;;;;;;26.83;37.22;95521.88;4977668;28;20034;-85
2021/04/24 07:23:04;;;;;;;6.00;1.98;;;;;;;26.88;37.56;95532.03;4951736;28;20556;-84
2021/04/24 07:25:29;;;;;;;3.88;1.77;;;;;;;26.75;37.39;95533.97;4956064;28;20018;-85
2021/04/24 07:27:55;;;;;;;3.33;1.67;;;;;;;26.73;37.33;95530.28;4967231;28;20724;-85
2021/04/24 07:30:21;;;;;;;7.45;1.88;;;;;;;26.78;38.19;95533.66;4952711;28;20056;-83
2021/04/24 07:32:46;;;;;;;5.40;2.50;;;;;;;26.93;35.22;95531.22;4984656;28;20034;-76
2021/04/24 07:35:12;;;;;;;6.28;2.55;;;;;;;26.93;34.04;95533.97;4985120;28;20022;-76
2021/04/24 07:37:37;;;;;;;7.22;3.35;;;;;;;26.70;33.18;95525.81;4985597;28;20041;-76
2021/04/24 07:40:04;;;;;;;7.10;2.88;;;;;;;26.65;32.99;95530.13;4986942;28;20565;-76
2021/04/24 07:42:30;;;;;;;4.97;2.90;;;;;;;26.56;32.12;95527.75;4986998;28;20026;-75
2021/04/24 07:44:55;;;;;;;5.78;2.85;;;;;;;26.42;31.85;95517.22;4986275;28;20057;-76
2021/04/24 07:47:21;;;;;;;5.57;3.40;;;;;;;26.22;32.22;95520.44;4985916;28;20508;-76
2021/04/24 07:49:46;;;;;;;6.35;3.00;;;;;;;25.76;31.95;95516.47;4987958;28;20037;-76
2021/04/24 07:52:12;;;;;;;5.82;2.90;;;;;;;25.74;31.86;95529.91;4990752;28;20023;-76
2021/04/24 07:54:43;;;;;;;7.25;3.13;;;;;;;25.74;32.13;95518.94;4988968;28;20054;-75
2021/04/24 07:57:11;;;;;;;6.43;3.08;;;;;;;25.63;31.97;95524.50;4965971;28;20015;-76
2021/04/24 07:59:37;;;;;;;7.13;2.83;;;;;;;25.43;32.30;95522.22;4989986;28;20046;-75
2021/04/24 08:02:03;;;;;;;5.65;2.65;;;;;;;25.37;32.37;95513.31;4969082;28;20403;-76
2021/04/24 08:04:28;;;;;;;10.65;4.75;;;;;;;25.33;32.10;95521.03;4989766;28;20716;-75
2021/04/24 08:06:53;;;;;;;6.72;3.50;;;;;;;25.22;32.22;95523.16;4972344;28;20026;-75
2021/04/24 08:09:19;;;;;;;6.63;3.50;;;;;;;25.12;32.41;95519.97;4989700;28;20038;-75
2021/04/24 08:11:44;;;;;;;7.20;3.17;;;;;;;24.99;32.60;95522.56;4990337;28;20550;-76
2021/04/24 08:14:10;;;;;;;5.68;3.00;;;;;;;25.02;31.80;95510.63;4989982;28;20040;-75
2021/04/24 08:16:35;;;;;;;8.65;3.03;;;;;;;24.88;32.08;95517.13;4990108;28;20105;-75
2021/04/24 08:19:01;;;;;;;6.40;3.30;;;;;;;24.86;32.11;95514.16;4971695;28;20026;-75
2021/04/24 08:21:27;;;;;;;6.07;3.30;;;;;;;24.68;32.05;95510.53;4990003;28;20097;-75
2021/04/24 08:23:58;;;;;;;7.47;3.33;;;;;;;24.72;31.96;95508.31;4989775;28;20739;-75
2021/04/24 08:26:25;;;;;;;7.63;3.83;;;;;;;24.61;32.41;95502.91;4987803;28;20038;-75
2021/04/24 08:28:51;;;;;;;7.22;3.35;;;;;;;24.53;32.01;95496.50;4971864;28;20030;-75
2021/04/24 08:31:16;;;;;;;7.43;3.22;;;;;;;24.55;32.09;95499.47;4972257;28;20018;-75
2021/04/24 08:33:42;;;;;;;6.65;3.10;;;;;;;24.47;31.87;95490.34;4989870;28;20045;-75
2021/04/24 08:36:07;;;;;;;5.72;3.08;;;;;;;24.35;32.06;95488.91;4961234;28;20098;-75
2021/04/24 08:38:33;;;;;;;7.47;3.15;;;;;;;24.31;32.27;95491.13;4934876;28;20054;-75
2021/04/24 08:40:58;;;;;;;5.35;2.85;;;;;;;24.20;31.98;95463.91;4970552;28;20474;-75
2021/04/24 08:43:24;;;;;;;6.22;3.05;;;;;;;24.17;32.20;95473.09;4969931;28;20062;-75
2021/04/24 08:45:50;;;;;;;8.20;3.30;;;;;;;24.13;32.15;95469.88;4953110;28;20097;-75
2021/04/24 08:48:19;;;;;;;5.85;2.95;;;;;;;24.18;31.61;95471.81;4970056;28;20054;-75
2021/04/24 08:50:44;;;;;;;4.80;2.75;;;;;;;24.15;31.29;95456.44;4986914;28;20042;-75
2021/04/24 08:53:10;;;;;;;4.88;2.70;;;;;;;24.08;31.40;95448.81;4972679;28;20049;-75
2021/04/24 08:55:36;;;;;;;5.78;2.88;;;;;;;24.02;31.67;95453.56;4990056;28;20062;-75
2021/04/24 08:58:04;;;;;;;4.78;2.42;;;;;;;23.94;30.93;95441.66;4989100;28;20033;-75
2021/04/24 09:00:33;;;;;;;4.82;2.55;;;;;;;23.98;31.36;95447.59;4986899;28;20034;-75
2021/04/24 09:02:59;;;;;;;8.93;2.80;;;;;;;23.86;31.21;95436.53;4972354;28;20173;-75
2021/04/24 09:05:25;;;;;;;5.07;2.88;;;;;;;23.82;30.95;95444.22;4972318;28;20034;-75
2021/04/24 09:07:57;;;;;;;5.90;2.80;;;;;;;23.79;31.26;95435.03;4989201;28;20549;-75
2021/04/24 09:10:23;;;;;;;5.00;2.60;;;;;;;23.80;30.97;95435.81;4988542;28;20080;-75
2021/04/24 09:12:49;;;;;;;6.50;2.65;;;;;;;23.71;31.72;95428.63;4989646;28;20468;-75
2021/04/24 09:15:19;;;;;;;5.47;2.95;;;;;;;23.77;30.89;95425.91;4971988;28;20053;-75
2021/04/24 09:17:58;;;;;;;4.75;2.40;;;;;;;23.71;31.31;95417.00;4989289;28;20031;-75
2021/04/24 09:20:26;;;;;;;5.40;2.90;;;;;;;23.69;31.38;95408.56;4988011;28;20041;-75
2021/04/24 09:23:04;;;;;;;5.65;2.58;;;;;;;23.63;31.17;95410.53;4989409;28;20565;-75
2021/04/24 09:25:35;;;;;;;4.43;2.60;;;;;;;23.63;31.28;95415.97;4973428;28;20037;-75
2021/04/24 09:28:01;;;;;;;5.85;2.92;;;;;;;23.65;31.43;95402.63;4988691;28;20045;-75
2021/04/24 09:30:28;;;;;;;5.70;2.67;;;;;;;23.59;31.31;95404.59;4989606;28;20034;-74
2021/04/24 09:32:54;;;;;;;6.40;3.20;;;;;;;23.62;31.42;95398.16;4989190;28;20100;-75
2021/04/24 09:35:21;;;;;;;4.82;2.97;;;;;;;23.61;30.87;95402.13;4989264;28;20041;-74
2021/04/24 09:37:59;;;;;;;5.72;2.90;;;;;;;23.60;31.00;95406.06;4987402;28;20022;-75
2021/04/24 09:40:25;;;;;;;5.45;3.10;;;;;;;23.55;31.16;95393.94;4971645;28;20030;-74
2021/04/24 09:42:57;;;;;;;4.10;2.28;;;;;;;23.53;31.00;95391.00;4988986;28;20081;-75
2021/04/24 09:45:25;;;;;;;4.55;2.80;;;;;;;23.55;31.18;95387.75;4988991;28;20022;-74
2021/04/24 09:47:51;;;;;;;5.70;2.70;;;;;;;23.46;30.93;95374.41;4985377;28;20031;-75
2021/04/24 09:50:19;;;;;;;4.05;2.22;;;;;;;23.49;31.00;95378.84;4952137;28;20027;-74
2021/04/24 09:52:45;;;;;;;5.03;2.70;;;;;;;23.48;31.27;95374.63;4969405;28;20122;-75
2021/04/24 09:55:35;;;;;;;5.43;2.67;;;;;;;23.50;30.74;95374.91;4969140;28;20074;-75
2021/04/24 09:58:02;;;;;;;7.88;3.33;;;;;;;23.39;30.63;95353.88;4968790;28;20019;-75
2021/04/24 10:00:28;;;;;;;4.57;2.45;;;;;;;23.45;30.51;95372.91;4952298;28;20406;-75
2021/04/24 10:02:53;;;;;;;5.28;2.65;;;;;;;23.45;30.52;95367.47;4952236;28;20066;-75
2021/04/24 10:05:20;;;;;;;5.72;2.45;;;;;;;23.32;30.41;95348.19;4951742;28;20427;-75
2021/04/24 10:07:52;;;;;;;3.95;2.35;;;;;;;23.32;30.80;95348.19;4969032;28;20046;-75
2021/04/24 10:10:31;;;;;;;6.00;3.15;;;;;;;23.33;30.85;95355.13;4936872;28;20091;-75
2021/04/24 10:12:58;;;;;;;5.80;2.80;;;;;;;23.34;30.59;95351.16;4952340;28;20562;-75
2021/04/24 10:15:41;;;;;;;5.00;2.72;;;;;;;23.30;30.68;95350.66;4951797;28;20438;-75
2021/04/24 10:18:09;;;;;;;5.53;2.20;;;;;;;23.28;30.91;95342.25;4969091;28;20035;-75
2021/04/24 10:20:34;;;;;;;4.45;2.60;;;;;;;23.29;30.94;95338.31;4969217;28;20073;-75
2021/04/24 10:23:00;;;;;;;5.82;2.33;;;;;;;23.30;31.09;95339.03;4951736;28;20090;-75
2021/04/24 10:25:26;;;;;;;4.95;2.40;;;;;;;23.30;30.82;95337.03;4968994;28;20138;-75
2021/04/24 10:27:52;;;;;;;6.10;2.95;;;;;;;23.31;30.75;95335.81;4968333;28;20038;-75
2021/04/24 10:30:18;;;;;;;5.32;3.08;;;;;;;23.30;30.40;95331.59;4970839;28;20041;-75
2021/04/24 10:32:45;;;;;;;4.80;2.50;;;;;;;23.27;30.86;95329.88;4988217;28;20034;-75
2021/04/24 10:35:11;;;;;;;7.25;2.67;;;;;;;23.27;30.86;95334.59;4971179;28;20038;-75
2021/04/24 10:37:36;;;;;;;5.35;2.50;;;;;;;23.25;30.58;95337.06;4988004;28;20046;-75
2021/04/24 10:40:02;;;;;;;4.97;2.55;;;;;;;23.25;30.47;95326.19;4987948;28;20022;-75
2021/04/24 10:42:29;;;;;;;5.25;2.85;;;;;;;23.13;30.47;95314.56;4988115;28;20232;-75
2021/04/24 10:44:59;;;;;;;6.25;2.60;;;;;;;23.21;30.63;95318.25;4970973;28;20064;-75
2021/04/24 10:47:37;;;;;;;6.60;2.75;;;;;;;23.21;30.35;95320.97;4986494;28;20117;-75
2021/04/24 10:50:03;;;;;;;5.93;2.50;;;;;;;23.19;30.49;95328.91;4987758;28;20067;-75
2021/04/24 10:52:29;;;;;;;6.10;2.50;;;;;;;23.16;30.82;95324.47;4987984;28;20049;-75
2021/04/24 10:55:12;;;;;;;4.15;2.72;;;;;;;23.19;30.18;95326.19;4986615;28;20109;-75
2021/04/24 10:57:40;;;;;;;5.43;2.45;;;;;;;23.13;30.63;95347.25;4987605;28;20046;-75
2021/04/24 11:00:13;;;;;;;5.38;2.78;;;;;;;23.10;30.28;95342.81;4987960;28;20101;-75
2021/04/24 11:02:51;;;;;;;4.43;2.55;;;;;;;23.15;30.85;95338.56;4987929;28;20085;-75
2021/04/24 11:05:17;;;;;;;5.50;2.28;;;;;;;23.15;30.31;95344.78;4988061;28;20417;-75
2021/04/24 11:07:43;;;;;;;6.35;2.75;;;;;;;23.11;30.23;95341.56;4987875;28;20030;-74
2021/04/24 11:10:11;;;;;;;6.05;2.47;;;;;;;23.04;30.81;95344.78;4987688;28;20023;-75
2021/04/24 11:12:44;;;;;;;4.65;2.60;;;;;;;22.91;30.58;95336.41;4988072;28;20034;-75
2021/04/24 11:15:10;;;;;;;4.85;2.55;;;;;;;23.03;30.32;95359.69;4988033;28;20035;-75
2021/04/24 11:17:36;;;;;;;5.15;2.60;;;;;;;23.04;30.10;95355.69;4987501;28;20053;-75
2021/04/24 11:20:02;;;;;;;4.72;2.40;;;;;;;23.05;30.26;95368.09;4987699;28;20022;-75
2021/04/24 11:22:37;;;;;;;5.10;2.75;;;;;;;23.04;30.15;95355.69;4987776;28;20037;-75
2021/04/24 11:25:27;;;;;;;5.28;2.50;;;;;;;22.99;30.66;95361.91;4990819;28;20414;-75
2021/04/24 11:28:10;;;;;;;4.45;2.22;;;;;;;23.03;30.45;95359.69;4990878;28;20030;-75
2021/04/24 11:30:59;;;;;;;5.80;2.45;;;;;;;23.02;30.44;95347.28;4991439;28;20042;-75
2021/04/24 11:33:38;;;;;;;6.40;2.47;;;;;;;22.99;30.68;95348.28;4991290;28;20066;-75